createdAt,value
2022-08-29T00:00:33.696Z,101012.53
2022-08-29T00:03:01.268Z,101002.97
2022-08-29T00:05:32.974Z,101009.81
2022-08-29T00:08:01.667Z,101004.63
2022-08-29T00:10:31.961Z,100999.16
2022-08-29T00:12:58.612Z,100999.16
2022-08-29T00:15:25.790Z,100997.00
2022-08-29T00:17:52.681Z,101002.75
2022-08-29T00:20:29.116Z,100994.28
2022-08-29T00:23:01.940Z,100995.38
2022-08-29T00:25:28.529Z,100995.94
2022-08-29T00:27:55.184Z,100994.59
2022-08-29T00:30:22.201Z,101000.59
2022-08-29T00:32:48.777Z,100995.38
2022-08-29T00:35:20.234Z,100990.72
2022-08-29T00:37:46.877Z,100998.16
2022-08-29T00:40:18.346Z,100995.13
2022-08-29T00:42:45.053Z,101007.97
2022-08-29T00:45:14.233Z,100999.78
2022-08-29T00:47:46.645Z,101005.53
2022-08-29T00:50:28.083Z,101003.63
2022-08-29T00:52:57.305Z,100988.59
2022-08-29T00:55:27.594Z,100995.44
2022-08-29T00:57:58.810Z,100997.09
2022-08-29T01:00:26.317Z,100992.19
2022-08-29T01:02:54.366Z,101006.38
2022-08-29T01:05:21.670Z,101008.59
2022-08-29T01:07:48.561Z,101006.41
2022-08-29T01:10:36.235Z,100999.31
2022-08-29T01:13:04.595Z,101002.56
2022-08-29T01:15:33.736Z,101006.41
2022-08-29T01:18:04.910Z,101008.03
2022-08-29T01:21:20.300Z,101005.28
2022-08-29T01:23:59.686Z,101008.31
2022-08-29T01:26:29.099Z,101000.41
2022-08-29T01:28:56.567Z,100996.88
2022-08-29T01:31:37.894Z,101003.69
2022-08-29T01:34:16.384Z,100998.78
2022-08-29T01:36:51.869Z,100994.94
2022-08-29T01:39:22.197Z,100994.41
2022-08-29T01:41:50.159Z,101000.44
2022-08-29T01:44:19.395Z,101002.31
2022-08-29T01:46:47.895Z,100997.41
2022-08-29T01:49:15.690Z,100994.38
2022-08-29T01:51:42.277Z,101000.94
2022-08-29T01:54:10.933Z,100993.28
2022-08-29T01:56:41.420Z,101004.22
2022-08-29T01:59:10.994Z,101004.78
2022-08-29T02:01:44.997Z,101008.03
2022-08-29T02:04:11.936Z,101009.66
2022-08-29T02:06:38.623Z,101010.22
2022-08-29T02:09:06.292Z,101012.38
2022-08-29T02:11:33.263Z,101007.47
2022-08-29T02:14:00.017Z,101003.09
2022-08-29T02:16:28.621Z,101009.69
2022-08-29T02:18:55.955Z,101017.31
2022-08-29T02:21:25.596Z,101019.50
2022-08-29T02:23:53.341Z,101009.09
2022-08-29T02:26:21.912Z,101008.81
2022-08-29T02:28:51.737Z,101008.00
2022-08-29T02:31:23.037Z,101012.91
2022-08-29T02:33:50.757Z,101016.19
2022-08-29T02:36:19.675Z,101019.47
2022-08-29T02:38:46.558Z,101016.19
2022-08-29T02:41:14.400Z,101016.44
2022-08-29T02:43:41.544Z,101012.34
2022-08-29T02:46:08.397Z,101011.81
2022-08-29T02:48:34.896Z,101005.78
2022-08-29T02:51:01.462Z,101013.50
2022-08-29T02:53:31.114Z,101014.81
2022-08-29T02:55:58.333Z,101010.72
2022-08-29T02:58:25.693Z,101009.63
2022-08-29T03:00:54.112Z,101008.25
2022-08-29T03:03:20.917Z,101008.50
2022-08-29T03:05:47.996Z,101013.41
2022-08-29T03:08:15.110Z,101008.22
2022-08-29T03:10:43.204Z,101013.97
2022-08-29T03:13:10.781Z,101010.66
2022-08-29T03:15:37.518Z,101014.47
2022-08-29T03:18:04.609Z,101005.75
2022-08-29T03:20:34.349Z,100998.38
2022-08-29T03:23:00.831Z,101005.44
2022-08-29T03:25:27.300Z,101014.03
2022-08-29T03:27:53.949Z,101011.22
2022-08-29T03:30:21.765Z,100996.69
2022-08-29T03:32:51.075Z,101001.88
2022-08-29T03:35:19.660Z,101001.31
2022-08-29T03:37:46.247Z,100996.41
2022-08-29T03:40:13.941Z,101002.94
2022-08-29T03:42:41.105Z,100998.56
2022-08-29T03:45:10.694Z,100997.47
2022-08-29T03:47:37.266Z,101002.41
2022-08-29T03:50:04.633Z,101001.81
2022-08-29T03:52:31.349Z,101001.81
2022-08-29T03:54:58.533Z,101012.75
2022-08-29T03:57:26.562Z,101010.00
2022-08-29T03:59:54.769Z,101001.81
2022-08-29T04:02:21.251Z,101005.63
2022-08-29T04:05:08.192Z,101010.16
2022-08-29T04:07:55.945Z,101013.41
2022-08-29T04:10:26.178Z,101016.03
2022-08-29T04:12:54.870Z,101010.59
2022-08-29T04:15:24.969Z,101005.13
2022-08-29T04:17:54.505Z,100999.66
2022-08-29T04:20:25.235Z,101006.75
2022-08-29T04:22:54.216Z,101007.56
2022-08-29T04:25:21.938Z,101008.38
2022-08-29T04:27:49.702Z,101005.63
2022-08-29T04:30:18.726Z,101001.81
2022-08-29T04:32:45.298Z,101011.94
2022-08-29T04:35:13.614Z,101031.56
2022-08-29T04:37:40.858Z,101024.47
2022-08-29T04:40:09.823Z,101028.56
2022-08-29T04:42:40.046Z,101031.31
2022-08-29T04:45:09.197Z,101019.59
2022-08-29T04:47:36.226Z,101022.59
2022-08-29T04:50:03.598Z,101024.22
2022-08-29T04:52:30.463Z,101020.94
2022-08-29T04:54:57.407Z,101017.94
2022-08-29T04:57:24.863Z,101033.75
2022-08-29T04:59:55.680Z,101034.88
2022-08-29T05:02:23.802Z,101032.09
2022-08-29T05:04:53.013Z,101035.09
2022-08-29T05:07:21.692Z,101034.56
2022-08-29T05:09:50.868Z,101032.91
2022-08-29T05:12:18.400Z,101039.47
2022-08-29T05:14:44.889Z,101030.13
2022-08-29T05:17:11.271Z,101033.03
2022-08-29T05:19:42.872Z,101019.19
2022-08-29T05:22:14.491Z,101027.31
2022-08-29T05:24:41.022Z,101024.03
2022-08-29T05:27:11.364Z,101034.84
2022-08-29T05:29:40.316Z,101024.03
2022-08-29T05:32:08.691Z,101026.75
2022-08-29T05:34:36.768Z,101021.31
2022-08-29T05:37:07.093Z,101031.72
2022-08-29T05:39:35.300Z,101037.72
2022-08-29T05:42:02.480Z,101038.56
2022-08-29T05:44:34.880Z,101039.44
2022-08-29T05:47:03.678Z,101038.88
2022-08-29T05:49:30.196Z,101036.16
2022-08-29T05:51:56.608Z,101032.78
2022-08-29T05:54:24.760Z,101044.91
2022-08-29T05:56:56.980Z,101038.06
2022-08-29T05:59:23.504Z,101040.22
2022-08-29T06:01:49.940Z,101043.41
2022-08-29T06:04:18.812Z,101046.53
2022-08-29T06:06:45.369Z,101041.06
2022-08-29T06:09:13.325Z,101052.81
2022-08-29T06:11:40.077Z,101049.81
2022-08-29T06:14:06.566Z,101053.09
2022-08-29T06:16:33.050Z,101050.56
2022-08-29T06:19:00.817Z,101049.88
2022-08-29T06:21:27.540Z,101048.78
2022-08-29T06:23:54.892Z,101054.78
2022-08-29T06:26:21.565Z,101058.34
2022-08-29T06:28:48.788Z,101052.63
2022-08-29T06:31:20.966Z,101048.81
2022-08-29T06:33:51.541Z,101053.53
2022-08-29T06:36:18.261Z,101061.94
2022-08-29T06:38:44.840Z,101066.31
2022-08-29T06:41:15.436Z,101065.53
2022-08-29T06:43:43.581Z,101067.97
2022-08-29T06:46:21.863Z,101069.09
2022-08-29T06:48:48.608Z,101072.34
2022-08-29T06:51:15.116Z,101068.25
2022-08-29T06:53:41.809Z,101071.91
2022-08-29T06:56:11.251Z,101074.00
2022-08-29T06:58:38.674Z,101067.91
2022-08-29T07:01:10.704Z,101076.72
2022-08-29T07:03:37.257Z,101078.53
2022-08-29T07:06:04.361Z,101069.69
2022-08-29T07:08:31.547Z,101075.28
2022-08-29T07:10:58.166Z,101082.63
2022-08-29T07:13:24.644Z,101079.31
2022-08-29T07:15:51.492Z,101077.59
2022-08-29T07:18:18.375Z,101085.09
2022-08-29T07:20:44.859Z,101082.06
2022-08-29T07:23:11.410Z,101084.97
2022-08-29T07:25:38.678Z,101076.72
2022-08-29T07:28:05.926Z,101081.47
2022-08-29T07:30:33.403Z,101079.44
2022-08-29T07:33:00.220Z,101083.19
2022-08-29T07:35:30.353Z,101083.72
2022-08-29T07:38:03.810Z,101078.00
2022-08-29T07:40:30.582Z,101079.31
2022-08-29T07:42:57.224Z,101067.59
2022-08-29T07:45:23.651Z,101071.31
2022-08-29T07:47:50.200Z,101068.44
2022-08-29T07:50:17.206Z,101061.59
2022-08-29T07:52:43.817Z,101067.63
2022-08-29T07:55:10.574Z,101072.81
2022-08-29T07:57:39.932Z,101073.91
2022-08-29T08:00:12.372Z,101067.41
2022-08-29T08:02:39.164Z,101078.91
2022-08-29T08:05:07.213Z,101082.19
2022-08-29T08:07:35.221Z,101088.78
2022-08-29T08:10:02.373Z,101080.56
2022-08-29T08:12:29.418Z,101080.06
2022-08-29T08:14:57.105Z,101078.97
2022-08-29T08:17:24.188Z,101081.72
2022-08-29T08:19:50.753Z,101076.56
2022-08-29T08:22:17.371Z,101091.31
2022-08-29T08:24:45.025Z,101085.28
2022-08-29T08:27:11.900Z,101081.19
2022-08-29T08:29:38.472Z,101086.16
2022-08-29T08:32:05.028Z,101092.72
2022-08-29T08:34:35.415Z,101088.06
2022-08-29T08:37:07.488Z,101085.09
2022-08-29T08:39:34.674Z,101085.63
2022-08-29T08:42:11.106Z,101087.31
2022-08-29T08:44:58.119Z,101087.34
2022-08-29T08:47:30.763Z,101080.22
2022-08-29T08:50:18.416Z,101087.06
2022-08-29T08:52:52.740Z,101090.88
2022-08-29T08:55:42.856Z,101096.06
2022-08-29T08:58:28.948Z,101093.34
2022-08-29T09:01:18.501Z,101085.16
2022-08-29T09:04:20.595Z,101096.09
2022-08-29T09:06:53.382Z,101090.59
2022-08-29T09:09:47.595Z,101094.72
2022-08-29T09:12:49.825Z,101085.69
2022-08-29T09:15:25.103Z,101099.34
2022-08-29T09:18:14.196Z,101095.25
2022-08-29T09:20:41.798Z,101091.69
2022-08-29T09:23:28.358Z,101098.81
2022-08-29T09:25:54.995Z,101093.88
2022-08-29T09:28:21.785Z,101095.50
2022-08-29T09:31:21.346Z,101097.41
2022-08-29T09:33:58.197Z,101101.56
2022-08-29T09:36:37.296Z,101102.34
2022-08-29T09:39:33.144Z,101092.22
2022-08-29T09:42:11.773Z,101087.31
2022-08-29T09:44:40.392Z,101100.44
2022-08-29T09:47:08.494Z,101095.53
2022-08-29T09:49:37.446Z,101102.59
2022-08-29T09:52:16.737Z,101106.44
2022-08-29T09:54:44.774Z,101104.53
2022-08-29T09:57:22.950Z,101107.56
2022-08-29T10:00:14.561Z,101102.06
2022-08-29T10:02:48.464Z,101103.69
2022-08-29T10:05:40.680Z,101098.78
2022-08-29T10:08:29.781Z,101105.06
2022-08-29T10:11:02.925Z,101102.63
2022-08-29T10:14:22.145Z,101098.44
2022-08-29T10:16:56.415Z,101091.63
2022-08-29T10:19:33.056Z,101104.44
2022-08-29T10:22:42.250Z,101099.19
2022-08-29T10:25:28.264Z,101095.38
2022-08-29T10:28:03.260Z,101102.72
2022-08-29T10:30:41.718Z,101101.63
2022-08-29T10:33:20.245Z,101105.97
2022-08-29T10:36:06.543Z,101097.97
2022-08-29T10:38:32.977Z,101100.16
2022-08-29T10:41:39.573Z,101102.25
2022-08-29T10:47:04.053Z,101098.78
2022-08-29T10:49:56.740Z,101097.97
2022-08-29T10:52:46.856Z,101090.59
2022-08-29T10:55:40.980Z,101089.97
2022-08-29T10:58:31.850Z,101077.00
2022-08-29T11:01:15.664Z,101074.97
2022-08-29T11:04:00.925Z,101079.22
2022-08-29T11:09:28.600Z,101079.28
2022-08-29T11:12:10.564Z,101075.56
2022-08-29T11:14:52.312Z,101078.06
2022-08-29T11:17:23.436Z,101083.91
2022-08-29T11:20:11.711Z,101085.63
2022-08-29T11:22:59.679Z,101071.31
2022-08-29T11:25:27.545Z,101078.88
2022-08-29T11:28:06.482Z,101073.91
2022-08-29T11:31:03.721Z,101084.41
2022-08-29T11:33:49.103Z,101079.31
2022-08-29T11:36:26.291Z,101081.84
2022-08-29T11:39:14.135Z,101073.34
2022-08-29T11:41:47.867Z,101074.16
2022-08-29T11:44:26.542Z,101071.38
2022-08-29T11:46:56.628Z,101075.16
2022-08-29T11:49:47.888Z,101068.00
2022-08-29T11:52:22.297Z,101065.09
2022-08-29T11:54:54.292Z,101064.44
2022-08-29T11:57:20.743Z,101074.31
2022-08-29T11:59:48.579Z,101066.03
2022-08-29T12:02:30.387Z,101067.41
2022-08-29T12:04:58.091Z,101064.91
2022-08-29T12:07:51.971Z,101061.00
2022-08-29T12:10:24.431Z,101060.84
2022-08-29T12:13:00.665Z,101055.75
2022-08-29T12:15:27.126Z,101054.66
2022-08-29T12:18:02.480Z,101062.00
2022-08-29T12:20:36.199Z,101061.56
2022-08-29T12:23:11.662Z,101050.19
2022-08-29T12:26:21.181Z,101050.25
2022-08-29T12:28:47.144Z,101055.91
2022-08-29T12:31:16.454Z,101040.66
2022-08-29T12:33:49.171Z,101033.63
2022-08-29T12:36:36.510Z,101039.22
2022-08-29T12:39:19.517Z,101038.38
2022-08-29T12:41:58.312Z,101039.50
2022-08-29T12:44:33.960Z,101035.50
2022-08-29T12:47:42.869Z,101031.13
2022-08-29T12:50:25.191Z,101027.78
2022-08-29T12:52:58.837Z,101033.94
2022-08-29T12:55:29.317Z,101032.81
2022-08-29T12:57:57.138Z,101029.06
2022-08-29T13:00:31.742Z,101021.41
2022-08-29T13:03:19.996Z,101019.13
2022-08-29T13:05:47.407Z,101015.84
2022-08-29T13:08:26.585Z,101013.91
2022-08-29T13:10:54.894Z,101012.63
2022-08-29T13:13:24.305Z,101005.63
2022-08-29T13:15:53.471Z,101001.38
2022-08-29T13:18:21.501Z,100998.63
2022-08-29T13:21:04.628Z,100997.94
2022-08-29T13:23:37.402Z,100995.19
2022-08-29T13:26:18.601Z,100993.41
2022-08-29T13:29:01.121Z,100992.91
2022-08-29T13:31:32.392Z,100987.69
2022-08-29T13:33:58.870Z,100995.03
2022-08-29T13:36:38.328Z,100987.38
2022-08-29T13:39:25.173Z,100986.56
2022-08-29T13:41:57.657Z,100985.94
2022-08-29T13:44:36.991Z,100977.31
2022-08-29T13:47:22.573Z,100983.00
2022-08-29T13:49:50.281Z,100975.03
2022-08-29T13:52:18.294Z,100969.00
2022-08-29T13:54:45.050Z,100975.34
2022-08-29T13:57:17.432Z,100960.66
2022-08-29T13:59:44.658Z,100966.06
2022-08-29T14:02:14.826Z,100967.66
2022-08-29T14:04:43.011Z,100966.19
2022-08-29T14:07:13.233Z,100958.38
2022-08-29T14:09:42.346Z,100961.00
2022-08-29T14:12:09.953Z,100957.75
2022-08-29T14:14:36.483Z,100956.47
2022-08-29T14:17:03.058Z,100950.72
2022-08-29T14:19:30.471Z,100953.66
2022-08-29T14:22:00.597Z,100943.91
2022-08-29T14:24:30.765Z,100951.75
2022-08-29T14:27:01.427Z,100955.47
2022-08-29T14:29:33.799Z,100949.31
2022-08-29T14:32:02.752Z,100948.16
2022-08-29T14:34:32.591Z,100949.63
2022-08-29T14:37:00.645Z,100946.38
2022-08-29T14:39:27.375Z,100943.94
2022-08-29T14:41:54.678Z,100937.59
2022-08-29T14:44:22.253Z,100941.66
2022-08-29T14:46:49.913Z,100945.25
2022-08-29T14:49:16.448Z,100939.38
2022-08-29T14:51:44.624Z,100943.31
2022-08-29T14:54:11.834Z,100951.59
2022-08-29T14:56:49.061Z,100943.94
2022-08-29T14:59:16.627Z,100942.31
2022-08-29T15:01:43.240Z,100934.34
2022-08-29T15:04:11.095Z,100942.63
2022-08-29T15:06:38.071Z,100940.38
2022-08-29T15:09:04.950Z,100935.31
2022-08-29T15:11:31.483Z,100942.47
2022-08-29T15:14:02.242Z,100936.13
2022-08-29T15:16:31.942Z,100933.84
2022-08-29T15:19:44.750Z,100937.09
2022-08-29T15:21:45.228Z,100925.53
2022-08-29T15:24:11.818Z,100917.69
2022-08-29T15:26:38.753Z,100925.38
2022-08-29T15:29:05.563Z,100921.75
2022-08-29T15:31:32.196Z,100913.81
2022-08-29T15:33:58.727Z,100923.22
2022-08-29T15:36:25.255Z,100922.44
2022-08-29T15:38:51.875Z,100920.00
2022-08-29T15:41:18.558Z,100932.53
2022-08-29T15:43:45.054Z,100926.19
2022-08-29T15:46:11.714Z,100926.19
2022-08-29T15:48:38.284Z,100920.97
2022-08-29T15:51:04.919Z,100915.78
2022-08-29T15:53:31.735Z,100920.50
2022-08-29T15:55:59.696Z,100910.91
2022-08-29T15:58:26.263Z,100911.72
2022-08-29T16:00:53.048Z,100915.63
2022-08-29T16:03:19.573Z,100905.19
2022-08-29T16:05:46.099Z,100909.78
2022-08-29T16:08:16.418Z,100913.03
2022-08-29T16:10:44.983Z,100909.13
2022-08-29T16:13:11.876Z,100896.94
2022-08-29T16:15:38.902Z,100911.09
2022-08-29T16:18:06.784Z,100908.47
2022-08-29T16:20:33.843Z,100907.19
2022-08-29T16:23:01.116Z,100905.06
2022-08-29T16:25:29.359Z,100912.31
2022-08-29T16:27:56.810Z,100910.69
2022-08-29T16:30:24.056Z,100904.78
2022-08-29T16:32:51.064Z,100902.00
2022-08-29T16:35:18.828Z,100901.47
2022-08-29T16:37:46.157Z,100900.16
2022-08-29T16:40:18.551Z,100899.75
2022-08-29T16:42:55.506Z,100907.19
2022-08-29T16:47:58.904Z,100897.25
2022-08-29T16:50:26.724Z,100903.88
2022-08-29T16:52:53.625Z,100902.88
2022-08-29T16:55:20.856Z,100894.75
2022-08-29T16:58:07.352Z,100898.63
2022-08-29T17:00:34.357Z,100900.25
2022-08-29T17:03:00.932Z,100900.88
2022-08-29T17:05:27.701Z,100898.44
2022-08-29T17:07:54.218Z,100903.16
2022-08-29T17:10:20.749Z,100902.31
2022-08-29T17:12:47.330Z,100901.81
2022-08-29T17:15:13.989Z,100902.94
2022-08-29T17:17:40.554Z,100906.03
2022-08-29T17:20:08.071Z,100898.88
2022-08-29T17:22:35.008Z,100903.59
2022-08-29T17:25:01.989Z,100897.25
2022-08-29T17:27:30.191Z,100899.19
2022-08-29T17:29:57.057Z,100898.41
2022-08-29T17:32:23.659Z,100896.44
2022-08-29T17:34:50.441Z,100904.72
2022-08-29T17:37:17.009Z,100911.03
2022-08-29T17:39:43.614Z,100905.84
2022-08-29T17:42:10.214Z,100907.78
2022-08-29T17:44:36.819Z,100900.13
2022-08-29T17:47:04.179Z,100903.16
2022-08-29T17:49:30.825Z,100902.69
2022-08-29T17:51:57.476Z,100901.38
2022-08-29T17:54:25.034Z,100904.25
2022-08-29T17:56:55.282Z,100902.00
2022-08-29T17:59:23.090Z,100901.63
2022-08-29T18:01:50.471Z,100904.50
2022-08-29T18:04:18.122Z,100899.94
2022-08-29T18:06:45.390Z,100903.63
2022-08-29T18:09:12.984Z,100907.66
2022-08-29T18:11:45.614Z,100905.38
2022-08-29T18:14:12.326Z,100905.13
2022-08-29T18:16:39.058Z,100904.44
2022-08-29T18:19:06.430Z,100913.13
2022-08-29T18:21:33.135Z,100910.78
2022-08-29T18:24:00.109Z,100919.16
2022-08-29T18:26:27.299Z,100915.72
2022-08-29T18:28:55.199Z,100922.44
2022-08-29T18:31:21.948Z,100923.69
2022-08-29T18:34:04.122Z,100926.53
2022-08-29T18:36:32.124Z,100924.50
2022-08-29T18:38:59.616Z,100929.13
2022-08-29T18:41:26.885Z,100930.94
2022-08-29T18:43:53.723Z,100932.25
2022-08-29T18:46:20.582Z,100928.59
2022-08-29T18:48:47.796Z,100929.63
2022-08-29T18:51:14.866Z,100932.25
2022-08-29T18:53:42.185Z,100941.78
2022-08-29T18:56:08.964Z,100945.84
2022-08-29T18:58:36.096Z,100941.91
2022-08-29T19:01:19.320Z,100935.63
2022-08-29T19:03:55.670Z,100931.66
2022-08-29T19:06:23.740Z,100939.53
2022-08-29T19:08:50.392Z,100941.13
2022-08-29T19:11:17.032Z,100943.69
2022-08-29T19:13:43.835Z,100943.03
2022-08-29T19:16:10.655Z,100945.63
2022-08-29T19:18:38.426Z,100960.53
2022-08-29T19:21:09.789Z,100951.81
2022-08-29T19:23:41.777Z,100962.81
2022-08-29T19:26:13.418Z,100957.47
2022-08-29T19:28:41.256Z,100959.25
2022-08-29T19:31:08.055Z,100965.91
2022-08-29T19:33:36.156Z,100966.50
2022-08-29T19:36:05.245Z,100966.06
2022-08-29T19:38:32.070Z,100969.41
2022-08-29T19:41:01.830Z,100972.31
2022-08-29T19:43:31.069Z,100980.56
2022-08-29T19:45:59.314Z,100989.19
2022-08-29T19:48:26.845Z,100984.63
2022-08-29T19:50:54.505Z,100984.13
2022-08-29T19:53:26.058Z,100985.25
2022-08-29T19:55:55.602Z,100992.44
2022-08-29T19:58:23.630Z,100984.06
2022-08-29T20:00:59.106Z,100986.03
2022-08-29T20:03:28.358Z,100986.09
2022-08-29T20:05:55.611Z,100990.53
2022-08-29T20:08:22.949Z,100987.31
2022-08-29T20:10:50.130Z,100990.09
2022-08-29T20:13:17.308Z,101002.16
2022-08-29T20:15:44.430Z,101007.16
2022-08-29T20:18:14.298Z,101007.16
2022-08-29T20:20:41.167Z,101007.19
2022-08-29T20:23:08.468Z,101015.41
2022-08-29T20:25:35.429Z,101011.59
2022-08-29T20:28:03.715Z,100999.56
2022-08-29T20:30:33.035Z,101008.06
2022-08-29T20:32:59.811Z,101010.00
2022-08-29T20:35:47.898Z,101004.81
2022-08-29T20:38:14.709Z,101015.25
2022-08-29T20:40:46.901Z,101016.63
2022-08-29T20:43:14.856Z,101028.69
2022-08-29T20:45:42.536Z,101032.28
2022-08-29T20:48:10.810Z,101032.81
2022-08-29T20:50:37.597Z,101037.19
2022-08-29T20:53:09.131Z,101041.06
2022-08-29T20:55:42.492Z,101032.81
2022-08-29T20:58:09.354Z,101044.88
2022-08-29T21:00:36.010Z,101050.59
2022-08-29T21:03:21.238Z,101064.53
2022-08-29T21:05:47.886Z,101059.63
2022-08-29T21:08:20.388Z,101066.38
2022-08-29T21:10:48.130Z,101065.88
2022-08-29T21:13:15.392Z,101065.00
2022-08-29T21:15:43.092Z,101069.66
2022-08-29T21:18:11.859Z,101069.91
2022-08-29T21:20:44.852Z,101070.72
2022-08-29T21:23:22.222Z,101076.16
2022-08-29T21:25:55.974Z,101062.72
2022-08-29T21:28:24.861Z,101079.72
2022-08-29T21:30:52.744Z,101071.72
2022-08-29T21:33:20.643Z,101075.53
2022-08-29T21:35:50.117Z,101073.06
2022-08-29T21:38:17.542Z,101071.69
2022-08-29T21:40:51.117Z,101079.88
2022-08-29T21:43:19.425Z,101067.81
2022-08-29T21:45:46.441Z,101071.63
2022-08-29T21:48:13.227Z,101071.06
2022-08-29T21:50:39.914Z,101072.97
2022-08-29T21:53:06.446Z,101081.69
2022-08-29T21:55:33.138Z,101075.94
2022-08-29T21:58:01.020Z,101091.00
2022-08-29T22:00:33.589Z,101078.63
2022-08-29T22:03:02.838Z,101085.78
2022-08-29T22:05:30.963Z,101077.56
2022-08-29T22:07:57.753Z,101079.19
2022-08-29T22:10:28.093Z,101090.38
2022-08-29T22:12:55.197Z,101080.81
2022-08-29T22:15:40.388Z,101081.66
2022-08-29T22:18:07.103Z,101080.56
2022-08-29T22:20:33.710Z,101082.44
2022-08-29T22:23:00.262Z,101080.56
2022-08-29T22:25:27.062Z,101078.06
2022-08-29T22:27:53.735Z,101075.31
2022-08-29T22:30:20.307Z,101075.31
2022-08-29T22:47:02.260Z,101083.00
2022-08-29T22:49:33.051Z,101077.28
2022-08-29T22:52:00.171Z,101079.78
2022-08-29T22:54:35.431Z,101077.59
2022-08-29T22:57:04.475Z,101080.38
2022-08-29T22:59:31.963Z,101082.59
2022-08-29T23:01:58.523Z,101079.31
2022-08-29T23:04:25.154Z,101074.91
2022-08-29T23:06:51.687Z,101081.53
2022-08-29T23:09:20.739Z,101077.13
2022-08-29T23:11:47.731Z,101073.84
2022-08-29T23:14:14.415Z,101078.81
2022-08-29T23:16:41.907Z,101075.53
2022-08-29T23:19:08.531Z,101076.63
2022-08-29T23:21:35.687Z,101074.16
2022-08-29T23:24:07.671Z,101076.09
2022-08-29T23:26:35.283Z,101081.03
2022-08-29T23:29:01.815Z,101082.16
2022-08-29T23:31:28.422Z,101083.25
2022-08-29T23:33:55.331Z,101091.75
2022-08-29T23:36:21.939Z,101083.78
2022-08-29T23:38:48.599Z,101083.25
2022-08-29T23:41:19.847Z,101079.97
2022-08-29T23:43:46.397Z,101083.84
2022-08-29T23:46:13.956Z,101073.38
2022-08-29T23:48:41.330Z,101081.09
2022-08-29T23:51:10.386Z,101081.88
2022-08-29T23:53:37.096Z,101078.38
2022-08-29T23:58:37.036Z,101080.56
